Disclaimer

Please do not use the information listed here in-flight or in-navigation, as they are not provided to us by the airports but are provided by volunteers, so they might be outdated.

Search


Regions


Airport information page

Radio informations:
Tower (TWR) - 130.7 MHz
Ground (GND) - 121.9 MHz

Airport informations:
Latitude: 53° 54' 37.07" N
Longitude: 008° 49' 06.57" W
Elevation: 665 feet - 203 meters
Operating hours: Remarks
Operating agency: Civil government, landing fees and diplomatic clearance may be required
Timezone: UTC 0(+1DT) - Last Sunday in March to last Sunday in October
Fuel: Jet A1+, Jet A1 with icing inhibitor.

100/130 MIL Spec, low lead, aviation gasoline (BLUE)

Runway information:
09/27 - 7546 x 148 feet< - >2300 x 45 meters

Recent METARs:
EIKN 151330Z 15016G26KT 110V190 9999 BKN002 BKN015 BKN033 11/11 Q0981 TEMPO 2000
EIKN 151400Z 15016KT 120V190 9999 BKN003 BKN028 12/11 Q0981 TEMPO 2000
EIKN 151430Z 16016G26KT 100V190 6000 +RA BKN004 BKN015 12/11 Q0981 TEMPO 2000

Airport on the map: